»·PEaware :: PSV493 CYYC-KALW

PSV493 :: CYYC-KALW

FLIGHT INFORMATION

Flight Status: Arrived
Operator:
Power Set Virtual (website)
More flights by this operator :: More flights under this callsign
Pilot: Brandon B. (33364)
Aircraft: BOEING 737-300
(B733)
More flights by this aircraft type
Origin: CYYC Calgary Intl
Canada
Destination: KALW Walla Walla Regl
United States
More flights between these airports :: More routes between these airports
Route: UKSAP BLUNT
File this flight plan on PilotEdge
Remarks: *PSV=Power*
Altitude:
(Current/Filed)
30,000ft
Speed:
(Current/Filed)
450kts
Departed: 18-Jan-21 11:37 AM
Arrived: 18-Jan-21 12:48 PM
Distance/Time
Traveled:
345nm/1:11
Distance/Time
To Go:
Arrived

Flight Plot

Page will automatically refresh every two minutes.

Flight plan parsing failed; only flown route is shown


Map Options




Map Legend


Flown Route
Filed Route
Departure Airport
Arrival Airport
Navaid (VOR, NDB)
Fix

Horizontal Profiles

Position Reports

Time Latitude Longitude Heading Altitude Ground
Speed
18-Jan-21 10:28 51.129634 -114.011216 315 3558ft 0kts
18-Jan-21 10:30 51.129634 -114.011216 315 3558ft 0kts
18-Jan-21 10:31 51.129634 -114.011216 315 3558ft 0kts
18-Jan-21 10:32 51.129634 -114.011216 315 3558ft 0kts
18-Jan-21 10:32 51.129634 -114.011216 315 3558ft 0kts
18-Jan-21 10:33 51.129634 -114.011216 315 3558ft 0kts
18-Jan-21 10:35 51.129634 -114.011216 315 3558ft 0kts
18-Jan-21 10:36 51.129634 -114.011216 315 3558ft 0kts
18-Jan-21 10:36 51.129634 -114.011216 315 3558ft 0kts
18-Jan-21 10:37 51.129634 -114.011216 315 3558ft 0kts
18-Jan-21 10:38 51.129634 -114.011216 315 3558ft 0kts
18-Jan-21 10:39 51.129634 -114.011216 315 3558ft 0kts
18-Jan-21 10:40 51.129634 -114.011216 315 3558ft 0kts
18-Jan-21 10:41 51.129634 -114.011216 315 3558ft 0kts
18-Jan-21 10:42 51.129634 -114.011216 315 3558ft 0kts
18-Jan-21 10:43 51.129634 -114.011216 315 3558ft 0kts
18-Jan-21 10:44 51.129634 -114.011216 315 3558ft 0kts
18-Jan-21 10:45 51.129634 -114.011216 315 3558ft 0kts
18-Jan-21 10:46 51.129634 -114.011216 315 3558ft 0kts
18-Jan-21 10:47 51.129634 -114.011216 315 3558ft 0kts
18-Jan-21 10:48 51.129634 -114.011216 315 3558ft 0kts
18-Jan-21 10:49 51.129634 -114.011216 315 3558ft 0kts
18-Jan-21 10:50 51.129634 -114.011216 315 3558ft 0kts
18-Jan-21 10:51 51.129634 -114.011216 315 3558ft 0kts
18-Jan-21 10:52 51.129634 -114.011216 315 3558ft 0kts
18-Jan-21 10:53 51.129634 -114.011216 315 3558ft 0kts
18-Jan-21 10:54 51.129634 -114.011216 315 3558ft 0kts
18-Jan-21 10:55 51.129634 -114.011216 315 3558ft 0kts
18-Jan-21 10:56 51.129634 -114.011216 315 3558ft 0kts
18-Jan-21 10:57 51.129634 -114.011216 315 3558ft 0kts
18-Jan-21 10:58 51.129634 -114.011216 315 3558ft 0kts
18-Jan-21 10:59 51.129634 -114.011216 315 3558ft 0kts
18-Jan-21 11:00 51.129634 -114.011216 315 3558ft 0kts
18-Jan-21 11:01 51.129634 -114.011216 315 3558ft 0kts
18-Jan-21 11:02 51.129634 -114.011216 315 3558ft 0kts
18-Jan-21 11:03 51.129634 -114.011216 315 3558ft 0kts
18-Jan-21 11:04 51.129634 -114.011216 315 3558ft 0kts
18-Jan-21 11:05 51.129634 -114.011216 315 3558ft 0kts
18-Jan-21 11:06 51.129634 -114.011216 315 3558ft 0kts
18-Jan-21 11:07 51.129634 -114.011216 315 3558ft 0kts
18-Jan-21 11:08 51.129634 -114.011216 315 3558ft 0kts
18-Jan-21 11:09 51.129634 -114.011216 315 3558ft 0kts
18-Jan-21 11:10 51.129634 -114.011216 315 3558ft 0kts
18-Jan-21 11:11 51.129634 -114.011216 315 3558ft 0kts
18-Jan-21 11:12 51.129634 -114.011216 315 3558ft 0kts
18-Jan-21 11:13 51.129634 -114.011215 315 3558ft 0kts
18-Jan-21 11:14 51.129311 -114.010701 315 3559ft 1kts
18-Jan-21 11:15 51.129421 -114.010105 202 3562ft 0kts
18-Jan-21 11:16 51.129423 -114.010105 202 3562ft 0kts
18-Jan-21 11:17 51.129423 -114.010105 202 3562ft 0kts
18-Jan-21 11:18 51.129423 -114.010105 202 3562ft 0kts
18-Jan-21 11:19 51.129423 -114.010105 202 3562ft 0kts
18-Jan-21 11:20 51.129423 -114.010105 202 3562ft 0kts
18-Jan-21 11:21 51.129423 -114.010105 202 3562ft 0kts
18-Jan-21 11:22 51.128981 -114.010409 204 3560ft 4kts
18-Jan-21 11:23 51.126373 -114.014107 222 3547ft 14kts
18-Jan-21 11:24 51.125121 -114.017947 180 3550ft 12kts
18-Jan-21 11:25 51.121299 -114.017948 180 3550ft 14kts
18-Jan-21 11:26 51.117297 -114.017946 180 3550ft 15kts
18-Jan-21 11:27 51.112656 -114.017959 180 3547ft 19kts
18-Jan-21 11:28 51.107742 -114.017966 180 3543ft 18kts
18-Jan-21 11:29 51.103537 -114.017970 179 3541ft 14kts
18-Jan-21 11:30 51.098664 -114.017970 180 3541ft 14kts
18-Jan-21 11:31 51.096916 -114.019453 270 3540ft 0kts
18-Jan-21 11:32 51.096916 -114.019453 270 3540ft 0kts
18-Jan-21 11:33 51.096916 -114.019453 270 3540ft 0kts
18-Jan-21 11:34 51.096916 -114.019453 270 3540ft 0kts
18-Jan-21 11:35 51.096916 -114.020045 270 3541ft 6kts
18-Jan-21 11:36 51.100974 -114.021357 359 3539ft 82kts
18-Jan-21 11:37 51.146579 -114.025498 337 5312ft 203kts
18-Jan-21 11:38 51.145536 -114.107847 226 8199ft 253kts
18-Jan-21 11:39 51.091633 -114.187315 241 10212ft 302kts
18-Jan-21 11:40 51.051038 -114.319006 253 12568ft 340kts
18-Jan-21 11:41 51.015567 -114.462867 255 15124ft 354kts
18-Jan-21 11:42 50.979205 -114.612719 254 17271ft 366kts
18-Jan-21 11:43 50.931562 -114.759346 220 19207ft 397kts
18-Jan-21 11:44 50.829797 -114.843278 210 21404ft 416kts
18-Jan-21 11:45 50.723697 -114.929586 210 23384ft 431kts
18-Jan-21 11:46 50.614176 -115.018353 211 25207ft 445kts
18-Jan-21 11:47 50.501309 -115.109354 212 26834ft 460kts
18-Jan-21 11:48 50.384536 -115.203009 214 28086ft 480kts
18-Jan-21 11:49 50.262785 -115.299995 213 29591ft 489kts
18-Jan-21 11:50 50.141036 -115.396379 214 30420ft 472kts
18-Jan-21 11:51 50.022807 -115.489644 215 30423ft 469kts
18-Jan-21 11:52 49.905300 -115.581692 215 30405ft 466kts
18-Jan-21 11:53 49.786500 -115.674131 213 30393ft 474kts
18-Jan-21 11:54 49.667965 -115.766141 213 30412ft 469kts
18-Jan-21 11:55 49.549956 -115.857117 214 30393ft 471kts
18-Jan-21 11:56 49.431273 -115.948110 213 30395ft 469kts
18-Jan-21 11:57 49.311862 -116.039104 213 30411ft 472kts
18-Jan-21 11:58 49.193874 -116.128684 213 30383ft 472kts
18-Jan-21 11:59 49.074971 -116.218338 213 30426ft 471kts
18-Jan-21 12:01 48.958208 -116.305879 214 30427ft 455kts
18-Jan-21 12:02 48.843563 -116.391334 214 30471ft 456kts
18-Jan-21 12:03 48.729026 -116.476335 214 30476ft 458kts
18-Jan-21 12:04 48.613511 -116.561639 214 30486ft 460kts
18-Jan-21 12:05 48.498852 -116.645875 214 30463ft 451kts
18-Jan-21 12:06 48.383408 -116.730573 213 30462ft 460kts
18-Jan-21 12:07 48.267779 -116.814646 213 30486ft 459kts
18-Jan-21 12:08 48.151398 -116.898954 214 30477ft 463kts
18-Jan-21 12:09 48.031706 -116.985191 214 30484ft 485kts
18-Jan-21 12:10 47.905206 -117.075862 215 30452ft 515kts
18-Jan-21 12:11 47.772048 -117.170377 214 30493ft 529kts
18-Jan-21 12:12 47.638867 -117.264615 215 30470ft 528kts
18-Jan-21 12:13 47.504155 -117.359528 214 30489ft 530kts
18-Jan-21 12:14 47.369256 -117.454065 213 27845ft 548kts
18-Jan-21 12:15 47.232139 -117.549343 212 24852ft 532kts
18-Jan-21 12:15 47.126202 -117.622644 212 24443ft 469kts
18-Jan-21 12:17 46.987358 -117.702597 202 20678ft 483kts
18-Jan-21 12:17 46.882650 -117.755648 202 18777ft 437kts
18-Jan-21 12:18 46.773354 -117.811492 202 16972ft 397kts
18-Jan-21 12:19 46.672582 -117.862825 201 14968ft 370kts
18-Jan-21 12:20 46.577683 -117.911023 201 12953ft 348kts
18-Jan-21 12:21 46.488079 -117.956319 201 10934ft 328kts
18-Jan-21 12:22 46.403266 -117.999036 201 8918ft 312kts
18-Jan-21 12:23 46.325260 -118.038863 209 7585ft 276kts
18-Jan-21 12:24 46.265892 -118.100465 219 6364ft 248kts
18-Jan-21 12:25 46.211892 -118.158399 217 5130ft 226kts
18-Jan-21 12:26 46.165644 -118.207100 217 4533ft 186kts
18-Jan-21 12:27 46.123165 -118.253633 216 3241ft 191kts
18-Jan-21 12:28 46.077970 -118.300673 217 3888ft 230kts
18-Jan-21 12:29 46.096113 -118.366855 351 5109ft 251kts
18-Jan-21 12:30 46.165906 -118.362413 14 3981ft 242kts
18-Jan-21 12:31 46.231992 -118.335619 14 4273ft 244kts
18-Jan-21 12:32 46.298659 -118.308144 14 4522ft 246kts
18-Jan-21 12:33 46.364749 -118.280718 16 4503ft 245kts
18-Jan-21 12:34 46.410109 -118.205776 54 4511ft 249kts
18-Jan-21 12:35 46.450375 -118.122775 54 4506ft 249kts
18-Jan-21 12:36 46.477402 -118.033734 110 4514ft 242kts
18-Jan-21 12:37 46.430063 -117.994185 199 4510ft 187kts
18-Jan-21 12:38 46.383402 -118.016677 194 4510ft 170kts
18-Jan-21 12:39 46.340343 -118.029476 195 4495ft 153kts
18-Jan-21 12:40 46.302713 -118.057854 219 4508ft 151kts
18-Jan-21 12:41 46.269779 -118.096849 219 4506ft 151kts
18-Jan-21 12:42 46.235480 -118.133504 217 4504ft 151kts
18-Jan-21 12:43 46.201163 -118.169652 217 3699ft 140kts
18-Jan-21 12:44 46.170087 -118.202465 216 2935ft 136kts
18-Jan-21 12:45 46.139277 -118.234938 216 2191ft 135kts
18-Jan-21 12:46 46.107599 -118.268138 216 1431ft 141kts
18-Jan-21 12:47 46.086033 -118.290949 216 1158ft 20kts
18-Jan-21 12:48 46.084132 -118.291304 90 1155ft 0kts
18-Jan-21 12:49 46.084132 -118.291304 90 1155ft 0kts
18-Jan-21 12:50 46.084132 -118.291304 90 1155ft 0kts
18-Jan-21 12:51 46.084132 -118.291304 90 1155ft 0kts
18-Jan-21 12:52 46.084132 -118.291304 90 1155ft 0kts
18-Jan-21 12:53 46.084132 -118.291304 90 1155ft 0kts
18-Jan-21 12:54 46.084132 -118.291304 90 1155ft 0kts
18-Jan-21 12:55 46.084132 -118.291304 90 1155ft 0kts
18-Jan-21 12:56 46.084849 -118.289486 35 1164ft 13kts
18-Jan-21 12:57 46.087825 -118.286361 36 1176ft 13kts
18-Jan-21 12:58 46.090677 -118.283369 36 1185ft 7kts
18-Jan-21 12:59 46.093162 -118.280756 37 1192ft 14kts
18-Jan-21 13:00 46.093899 -118.278487 68 1200ft 5kts
18-Jan-21 13:01 46.094384 -118.278564 306 1198ft 0kts

Navigation Log

Ident Type
Flight plan parsing failed, navigation log unavailable